.
WxDataArchive / Data Records for 2012-12-02
2012-12-01 December 2012 2012-12-03

Data Records for Sunday, 02 December 2012

Time	Temp	Chill	HIndex	Humid	Dewpt	 Wind 	HiWind	WindDir	Rain 	Barom 
-----	----	-----	------	-----	-----	------	------	-------	-----	----- 
00:00	56.9	56.9	56.9	66	45.7	2	5	315	0.00	30.025 
00:05	57.0	57.0	57.0	66	45.8	1	5	0	0.00	30.025 
00:10	56.9	56.9	56.9	67	46.1	1	4	248	0.00	30.025 
00:15	56.9	56.9	56.9	66	45.7	1	7	292	0.00	30.018 
00:20	56.7	56.7	56.7	71	47.4	1	7	45	0.00	30.018 
00:25	56.0	56.0	56.0	73	47.5	1	4	248	0.01	30.018 
00:30	55.6	55.6	55.6	75	47.8	1	5	315	0.00	30.015 
00:35	55.3	55.3	55.3	76	47.9	0	4	90	0.00	30.015 
00:40	55.0	55.0	55.0	77	47.9	1	3	68	0.05	30.015 
00:45	54.7	54.7	54.7	79	48.3	1	3	225	0.01	30.011 
00:50	54.4	54.4	54.4	80	48.4	1	4	68	0.00	30.011 
00:55	54.1	54.1	54.1	81	48.4	1	3	248	0.00	30.011 
01:00	54.1	54.1	54.1	80	48.1	1	4	248	0.00	30.007 
01:05	54.2	54.2	54.2	79	47.8	2	5	248	0.00	30.007 
01:10	54.5	54.5	54.5	78	47.8	1	2	68	0.00	30.007 
01:15	54.5	54.5	54.5	77	47.4	1	5	225	0.00	29.992 
01:20	54.8	54.8	54.8	75	47.0	1	7	68	0.00	29.992 
01:25	55.0	55.0	55.0	75	47.2	1	6	270	0.00	29.992 
01:30	55.0	55.0	55.0	76	47.6	1	5	248	0.00	29.981 
01:35	54.8	54.8	54.8	77	47.7	1	4	315	0.00	29.981 
01:40	54.7	54.7	54.7	77	47.6	1	4	68	0.00	29.981 
01:45	54.5	54.5	54.5	77	47.4	0	2	45	0.00	29.980 
01:50	54.5	54.5	54.5	77	47.4	1	5	248	0.00	29.980 
01:55	54.5	54.5	54.5	77	47.4	1	3	248	0.00	29.980 
02:00	54.5	54.5	54.5	77	47.4	0	2	248	0.00	29.979 
02:05	54.5	54.5	54.5	76	47.1	1	3	248	0.00	29.979 
02:10	54.8	54.8	54.8	75	47.0	1	5	248	0.00	29.979 
02:15	55.1	55.1	55.1	73	46.6	1	5	248	0.00	29.975 
02:20	55.4	55.4	55.4	73	46.9	1	2	248	0.00	29.975 
02:25	55.7	55.7	55.7	71	46.4	1	4	0	0.00	29.975 
02:30	56.2	56.2	56.2	70	46.5	1	4	112	0.00	29.975 
02:35	56.3	56.3	56.3	70	46.6	1	4	248	0.00	29.975 
02:40	56.6	56.6	56.6	69	46.5	2	5	248	0.00	29.975 
02:45	56.7	56.7	56.7	69	46.6	1	4	225	0.00	29.970 
02:50	56.9	56.9	56.9	69	46.8	1	7	248	0.00	29.970 
02:55	57.0	57.0	57.0	68	46.5	2	6	248	0.00	29.970 
03:00	57.0	57.0	57.0	68	46.5	1	5	90	0.00	29.966 
03:05	57.0	57.0	57.0	68	46.5	2	7	248	0.00	29.966 
03:10	57.2	57.2	57.2	68	46.7	2	9	248	0.00	29.966 
03:15	57.3	57.3	57.3	68	46.8	1	5	248	0.00	29.963 
03:20	57.3	57.3	57.3	68	46.8	1	4	225	0.00	29.963 
03:25	57.3	57.3	57.3	69	47.2	1	6	270	0.00	29.963 
03:30	57.3	57.3	57.3	69	47.2	1	6	248	0.00	29.963 
03:35	57.3	57.3	57.3	69	47.2	1	5	248	0.00	29.963 
03:40	57.3	57.3	57.3	69	47.2	1	5	270	0.00	29.963 
03:45	57.3	57.3	57.3	69	47.2	1	6	248	0.00	29.959 
03:50	57.3	57.3	57.3	69	47.2	1	6	248	0.00	29.959 
03:55	57.2	57.2	57.2	69	47.1	1	4	248	0.00	29.959 
04:00	57.2	57.2	57.2	70	47.5	1	5	248	0.00	29.952 
04:05	57.0	57.0	57.0	70	47.3	1	4	248	0.00	29.952 
04:10	57.0	57.0	57.0	70	47.3	1	5	248	0.00	29.952 
04:15	57.0	57.0	57.0	70	47.3	1	5	248	0.00	29.946 
04:20	57.0	57.0	57.0	70	47.3	1	4	248	0.00	29.946 
04:25	57.0	57.0	57.0	70	47.3	1	5	248	0.00	29.946 
04:30	57.0	57.0	57.0	70	47.3	1	4	248	0.00	29.940 
04:35	57.0	57.0	57.0	70	47.3	1	5	248	0.00	29.940 
04:40	57.0	57.0	57.0	71	47.7	1	5	248	0.00	29.940 
04:45	57.0	57.0	57.0	72	48.1	1	9	248	0.00	29.934 
04:50	56.9	56.9	56.9	72	48.0	1	5	248	0.00	29.934 
04:55	56.9	56.9	56.9	73	48.3	2	5	248	0.00	29.934 
05:00	56.7	56.7	56.7	73	48.1	1	5	225	0.00	29.932 
05:05	56.7	56.7	56.7	73	48.1	1	7	248	0.00	29.932 
05:10	56.7	56.7	56.7	73	48.1	1	4	270	0.00	29.932 
05:15	56.7	56.7	56.7	73	48.1	1	4	270	0.00	29.934 
05:20	56.9	56.9	56.9	73	48.3	2	7	248	0.00	29.934 
05:25	57.0	57.0	57.0	73	48.4	2	12	248	0.00	29.934 
05:30	57.0	57.0	57.0	73	48.4	2	5	248	0.00	29.931 
05:35	57.0	57.0	57.0	73	48.4	1	5	248	0.00	29.931 
05:40	57.0	57.0	57.0	73	48.4	2	6	248	0.00	29.931 
05:45	57.0	57.0	57.0	74	48.8	2	6	248	0.00	29.932 
05:50	56.9	56.9	56.9	74	48.7	2	7	248	0.00	29.932 
05:55	56.9	56.9	56.9	74	48.7	1	3	248	0.00	29.932 
06:00	56.7	56.7	56.7	75	48.9	1	5	248	0.00	29.935 
06:05	56.7	56.7	56.7	75	48.9	1	5	248	0.00	29.935 
06:10	56.7	56.7	56.7	75	48.9	2	9	248	0.00	29.935 
06:15	56.6	56.6	56.6	76	49.1	2	4	225	0.00	29.938 
06:20	56.6	56.6	56.6	77	49.5	1	4	248	0.00	29.938 
06:25	56.5	56.5	56.5	77	49.4	2	6	248	0.00	29.938 
06:30	56.2	56.2	56.2	78	49.4	1	6	248	0.00	29.944 
06:35	56.0	56.0	56.0	79	49.6	1	5	248	0.00	29.944 
06:40	55.9	55.9	55.9	81	50.2	2	6	248	0.00	29.944 
06:45	55.6	55.6	55.6	82	50.2	1	5	248	0.00	29.943 
06:50	55.4	55.4	55.4	83	50.3	2	5	248	0.01	29.943 
06:55	55.3	55.3	55.3	84	50.5	2	5	248	0.00	29.943 
07:00	55.1	55.1	55.1	85	50.7	1	7	248	0.00	29.946 
07:05	54.8	54.8	54.8	86	50.7	2	7	248	0.00	29.946 
07:10	54.7	54.7	54.7	87	50.9	2	5	248	0.00	29.946 
07:15	54.5	54.5	54.5	88	51.0	2	5	248	0.00	29.946 
07:20	54.4	54.4	54.4	88	50.9	2	8	248	0.00	29.946 
07:25	54.2	54.2	54.2	89	51.0	2	5	248	0.01	29.946 
07:30	54.2	54.2	54.2	89	51.0	1	5	248	0.00	29.949 
07:35	54.1	54.1	54.1	90	51.2	2	4	248	0.00	29.949 
07:40	54.1	54.1	54.1	90	51.2	2	6	248	0.00	29.949 
07:45	54.1	54.1	54.1	90	51.2	1	5	225	0.00	29.948 
07:50	54.1	54.1	54.1	90	51.2	2	7	248	0.00	29.948 
07:55	54.1	54.1	54.1	91	51.5	1	4	225	0.00	29.948 
08:00	54.1	54.1	54.1	91	51.5	2	6	225	0.01	29.950 
08:05	53.9	53.9	53.9	91	51.3	2	5	248	0.00	29.950 
08:10	53.9	53.9	53.9	91	51.3	1	5	248	0.01	29.950 
08:15	53.9	53.9	53.9	92	51.6	1	3	248	0.00	29.956 
08:20	53.8	53.8	53.8	92	51.5	1	3	248	0.00	29.956 
08:25	53.8	53.8	53.8	92	51.5	1	6	248	0.00	29.956 
08:30	53.8	53.8	53.8	92	51.5	1	4	270	0.00	29.955 
08:35	53.8	53.8	53.8	92	51.5	1	4	248	0.00	29.955 
08:40	53.8	53.8	53.8	92	51.5	1	5	248	0.00	29.955 
08:45	53.8	53.8	53.8	92	51.5	1	4	248	0.00	29.961 
08:50	53.9	53.9	53.9	93	51.9	2	9	248	0.01	29.961 
08:55	53.9	53.9	53.9	93	51.9	1	4	270	0.01	29.961 
09:00	53.9	53.9	53.9	93	51.9	1	4	270	0.00	29.963 
09:05	53.9	53.9	53.9	93	51.9	2	5	248	0.00	29.963 
09:10	53.9	53.9	53.9	93	51.9	1	7	248	0.00	29.963 
09:15	53.9	53.9	53.9	93	51.9	1	5	248	0.00	29.965 
09:20	53.9	53.9	53.9	93	51.9	1	4	248	0.00	29.965 
09:25	53.9	53.9	53.9	93	51.9	2	9	225	0.00	29.965 
09:30	54.1	54.1	54.1	94	52.4	1	9	248	0.00	29.966 
09:35	54.1	54.1	54.1	94	52.4	1	4	248	0.00	29.966 
09:40	54.1	54.1	54.1	94	52.4	1	5	248	0.00	29.966 
09:45	54.1	54.1	54.1	94	52.4	1	6	248	0.00	29.970 
09:50	54.2	54.2	54.2	94	52.5	1	4	248	0.00	29.970 
09:55	54.2	54.2	54.2	94	52.5	1	4	248	0.00	29.970 
10:00	54.4	54.4	54.4	94	52.7	1	5	248	0.00	29.966 
10:05	54.4	54.4	54.4	94	52.7	1	3	248	0.00	29.966 
10:10	54.5	54.5	54.5	94	52.8	0	2	248	0.00	29.966 
10:15	54.5	54.5	54.5	94	52.8	1	4	248	0.00	29.971 
10:20	54.5	54.5	54.5	94	52.8	1	5	248	0.00	29.971 
10:25	54.5	54.5	54.5	94	52.8	1	4	248	0.00	29.971 
10:30	54.5	54.5	54.5	94	52.8	1	3	248	0.00	29.977 
10:35	54.5	54.5	54.5	94	52.8	1	5	248	0.00	29.977 
10:40	54.5	54.5	54.5	94	52.8	1	4	248	0.00	29.977 
10:45	54.7	54.7	54.7	94	53.0	0	3	248	0.00	29.979 
10:50	54.7	54.7	54.7	94	53.0	1	4	248	0.00	29.979 
10:55	54.7	54.7	54.7	94	53.0	0	2	248	0.00	29.979 
11:00	54.8	54.8	54.8	94	53.1	1	4	248	0.00	29.979 
11:05	55.0	55.0	55.0	93	53.0	1	5	248	0.00	29.979 
11:10	55.0	55.0	55.0	93	53.0	1	5	248	0.00	29.979 
11:15	55.1	55.1	55.1	93	53.1	1	4	248	0.00	29.978 
11:20	55.3	55.3	55.3	93	53.3	1	4	248	0.00	29.978 
11:25	55.3	55.3	55.3	93	53.3	1	4	248	0.00	29.978 
11:30	55.4	55.4	55.4	92	53.1	1	5	248	0.00	29.975 
11:35	55.4	55.4	55.4	92	53.1	1	3	248	0.00	29.975 
11:40	55.6	55.6	55.6	92	53.3	1	4	292	0.00	29.975 
11:45	55.6	55.6	55.6	92	53.3	1	5	248	0.00	29.968 
11:50	55.9	55.9	55.9	92	53.6	1	4	248	0.00	29.968 
11:55	56.0	56.0	56.0	92	53.7	1	4	248	0.00	29.968 
12:00	56.0	56.0	56.0	91	53.4	1	5	248	0.00	29.964 
12:05	56.2	56.2	56.2	91	53.6	1	4	248	0.00	29.964 
12:10	56.2	56.2	56.2	91	53.6	1	5	248	0.00	29.964 
12:15	56.3	56.3	56.3	90	53.4	1	5	248	0.00	29.969 
12:20	56.5	56.5	56.5	90	53.6	0	3	248	0.00	29.969 
12:25	56.5	56.5	56.5	90	53.6	1	4	248	0.00	29.969 
12:30	56.6	56.6	56.6	89	53.4	1	3	248	0.00	29.966 
12:35	56.7	56.7	56.7	89	53.5	1	3	248	0.00	29.966 
12:40	56.7	56.7	56.7	89	53.5	1	4	248	0.00	29.966 
12:45	56.9	56.9	56.9	89	53.7	0	3	248	0.00	29.968 
12:50	57.0	57.0	57.0	88	53.5	1	4	248	0.00	29.968 
12:55	57.2	57.2	57.2	88	53.7	1	4	248	0.00	29.968 
13:00	57.2	57.2	57.2	88	53.7	0	3	248	0.00	29.966 
13:05	57.3	57.3	57.3	88	53.8	0	2	248	0.00	29.966 
13:10	57.3	57.3	57.3	87	53.5	2	4	248	0.00	29.966 
13:15	57.5	57.5	57.5	87	53.7	0	2	248	0.00	29.963 
13:20	57.5	57.5	57.5	87	53.7	1	4	248	0.00	29.963 
13:25	57.6	57.6	57.6	87	53.8	1	5	248	0.00	29.963 
13:30	57.6	57.6	57.6	86	53.4	0	3	248	0.00	29.963 
13:35	57.8	57.8	57.8	86	53.6	0	3	248	0.00	29.963 
13:40	57.8	57.8	57.8	86	53.6	0	3	248	0.00	29.963 
13:45	57.8	57.8	57.8	86	53.6	1	3	248	0.00	29.963 
13:50	57.8	57.8	57.8	86	53.6	1	5	248	0.00	29.963 
13:55	57.8	57.8	57.8	86	53.6	1	3	248	0.00	29.963 
14:00	58.0	58.0	58.0	86	53.8	1	4	248	0.00	29.963 
14:05	58.0	58.0	58.0	85	53.5	1	6	248	0.00	29.963 
14:10	58.0	58.0	58.0	85	53.5	1	5	248	0.00	29.963 
14:15	58.1	58.1	58.1	85	53.6	1	3	248	0.00	29.962 
14:20	58.1	58.1	58.1	85	53.6	1	5	248	0.00	29.962 
14:25	58.1	58.1	58.1	85	53.6	1	5	225	0.00	29.962 
14:30	58.3	58.3	58.3	85	53.8	0	2	248	0.00	29.966 
14:35	58.3	58.3	58.3	85	53.8	0	2	248	0.00	29.966 
14:40	58.3	58.3	58.3	85	53.8	1	5	248	0.00	29.966 
14:45	58.3	58.3	58.3	85	53.8	1	3	248	0.00	29.969 
14:50	58.3	58.3	58.3	85	53.8	1	3	248	0.00	29.969 
14:55	58.3	58.3	58.3	85	53.8	1	4	248	0.00	29.969 
15:00	58.4	58.4	58.4	85	53.9	1	5	248	0.00	29.973 
15:05	58.4	58.4	58.4	85	53.9	0	2	248	0.00	29.973 
15:10	58.6	58.6	58.6	85	54.1	1	4	270	0.00	29.973 
15:15	58.6	58.6	58.6	85	54.1	0	3	270	0.00	29.973 
15:20	58.7	58.7	58.7	85	54.2	1	4	270	0.00	29.973 
15:25	58.7	58.7	58.7	84	53.9	1	4	270	0.00	29.973 
15:30	58.7	58.7	58.7	84	53.9	0	3	270	0.00	29.977 
15:35	58.7	58.7	58.7	84	53.9	0	3	270	0.00	29.977 
15:40	58.7	58.7	58.7	84	53.9	1	3	270	0.00	29.977 
15:45	58.7	58.7	58.7	85	54.2	0	2	270	0.00	29.977 
15:50	58.7	58.7	58.7	84	53.9	1	3	270	0.00	29.977 
15:55	58.7	58.7	58.7	84	53.9	1	3	270	0.00	29.977 
16:00	58.7	58.7	58.7	84	53.9	1	4	248	0.00	29.987 
16:05	58.7	58.7	58.7	84	53.9	0	3	270	0.00	29.987 
16:10	58.7	58.7	58.7	85	54.2	0	3	270	0.00	29.987 
16:15	58.7	58.7	58.7	85	54.2	0	2	270	0.00	29.991 
16:20	58.6	58.6	58.6	85	54.1	0	2	270	0.00	29.991 
16:25	58.6	58.6	58.6	85	54.1	0	2	270	0.00	29.991 
16:30	58.6	58.6	58.6	85	54.1	0	2	270	0.00	29.993 
16:35	58.6	58.6	58.6	85	54.1	0	2	270	0.00	29.993 
16:40	58.6	58.6	58.6	85	54.1	0	3	270	0.00	29.993 
16:45	58.6	58.6	58.6	85	54.1	0	3	270	0.00	30.000 
16:50	58.6	58.6	58.6	85	54.1	0	2	270	0.00	30.000 
16:55	58.4	58.4	58.4	85	53.9	0	1	270	0.00	30.000 
17:00	58.4	58.4	58.4	85	53.9	0	1	270	0.00	30.007 
17:05	58.4	58.4	58.4	85	53.9	0	1	270	0.00	30.007 
17:10	58.4	58.4	58.4	86	54.2	0	1	270	0.00	30.007 
17:15	58.4	58.4	58.4	86	54.2	0	3	270	0.00	30.011 
17:20	58.3	58.3	58.3	86	54.1	0	1	270	0.00	30.011 
17:25	58.3	58.3	58.3	86	54.1	0	1	270	0.00	30.011 
17:30	58.3	58.3	58.3	86	54.1	0	1	270	0.00	30.011 
17:35	58.3	58.3	58.3	86	54.1	0	1	270	0.00	30.011 
17:40	58.1	58.1	58.1	86	53.9	0	1	270	0.00	30.011 
17:45	58.1	58.1	58.1	86	53.9	0	2	270	0.00	30.021 
17:50	58.1	58.1	58.1	86	53.9	0	3	270	0.00	30.021 
17:55	58.1	58.1	58.1	86	53.9	0	1	270	0.00	30.021 
18:00	58.1	58.1	58.1	87	54.2	0	1	270	0.00	30.023 
18:05	58.1	58.1	58.1	87	54.2	0	1	270	0.00	30.023 
18:10	58.1	58.1	58.1	87	54.2	0	1	270	0.00	30.023 
18:15	58.0	58.0	58.0	87	54.1	0	1	270	0.00	30.026 
18:20	58.0	58.0	58.0	87	54.1	0	3	270	0.00	30.026 
18:25	58.0	58.0	58.0	87	54.1	0	1	270	0.00	30.026 
18:30	58.1	58.1	58.1	87	54.2	0	1	270	0.00	30.030 
18:35	58.0	58.0	58.0	87	54.1	0	1	270	0.00	30.030 
18:40	58.0	58.0	58.0	87	54.1	0	0	---	0.00	30.030 
18:45	57.6	57.6	57.6	87	53.8	0	0	---	0.00	30.039 
18:50	57.5	57.5	57.5	87	53.7	0	1	270	0.00	30.039 
18:55	57.3	57.3	57.3	87	53.5	0	0	---	0.00	30.039 
19:00	57.2	57.2	57.2	88	53.7	0	1	270	0.00	30.049 
19:05	57.2	57.2	57.2	88	53.7	0	0	---	0.00	30.049 
19:10	57.0	57.0	57.0	88	53.5	0	1	270	0.00	30.049 
19:15	57.0	57.0	57.0	88	53.5	0	0	---	0.00	30.057 
19:20	57.0	57.0	57.0	88	53.5	0	0	---	0.00	30.057 
19:25	57.0	57.0	57.0	88	53.5	0	0	---	0.00	30.057 
19:30	57.0	57.0	57.0	89	53.8	0	0	---	0.00	30.059 
19:35	56.9	56.9	56.9	89	53.7	0	0	---	0.00	30.059 
19:40	56.7	56.7	56.7	89	53.5	0	0	---	0.00	30.059 
19:45	56.6	56.6	56.6	89	53.4	0	0	---	0.00	30.069 
19:50	56.5	56.5	56.5	89	53.3	0	0	---	0.00	30.069 
19:55	56.3	56.3	56.3	89	53.1	0	0	---	0.00	30.069 
20:00	56.2	56.2	56.2	89	53.0	0	0	---	0.00	30.065 
20:05	56.0	56.0	56.0	90	53.1	0	0	---	0.00	30.065 
20:10	55.9	55.9	55.9	90	53.0	0	0	---	0.00	30.065 
20:15	55.7	55.7	55.7	90	52.8	0	0	---	0.00	30.067 
20:20	55.7	55.7	55.7	90	52.8	0	0	---	0.00	30.067 
20:25	55.6	55.6	55.6	90	52.7	0	0	---	0.00	30.067 
20:30	55.4	55.4	55.4	90	52.5	0	0	---	0.00	30.073 
20:35	55.4	55.4	55.4	91	52.8	0	0	---	0.00	30.073 
20:40	55.3	55.3	55.3	91	52.7	0	0	---	0.00	30.073 
20:45	55.3	55.3	55.3	91	52.7	0	0	---	0.00	30.077 
20:50	55.3	55.3	55.3	91	52.7	0	0	---	0.00	30.077 
20:55	55.3	55.3	55.3	92	53.0	0	0	---	0.00	30.077 
21:00	55.3	55.3	55.3	92	53.0	0	0	---	0.00	30.078 
21:05	55.3	55.3	55.3	92	53.0	0	0	---	0.00	30.078 
21:10	55.1	55.1	55.1	92	52.8	0	0	---	0.00	30.078 
21:15	55.1	55.1	55.1	92	52.8	0	0	---	0.00	30.083 
21:20	55.1	55.1	55.1	92	52.8	0	0	---	0.00	30.083 
21:25	55.1	55.1	55.1	92	52.8	0	0	---	0.00	30.083 
21:30	55.0	55.0	55.0	92	52.7	0	0	---	0.00	30.083 
21:35	54.8	54.8	54.8	92	52.5	0	0	---	0.00	30.083 
21:40	54.7	54.7	54.7	92	52.4	0	0	---	0.00	30.083 
21:45	54.5	54.5	54.5	92	52.2	0	0	---	0.00	30.088 
21:50	54.2	54.2	54.2	92	51.9	0	1	270	0.00	30.088 
21:55	54.2	54.2	54.2	92	51.9	0	0	---	0.00	30.088 
22:00	54.2	54.2	54.2	92	51.9	0	0	---	0.00	30.083 
22:05	54.1	54.1	54.1	93	52.1	0	0	---	0.00	30.083 
22:10	53.9	53.9	53.9	93	51.9	0	0	---	0.00	30.083 
22:15	53.6	53.6	53.6	93	51.6	0	0	---	0.00	30.083 
22:20	53.3	53.3	53.3	93	51.3	0	0	---	0.00	30.083 
22:25	53.2	53.2	53.2	93	51.2	0	0	---	0.00	30.083 
22:30	53.2	53.2	53.2	93	51.2	0	1	270	0.00	30.083 
22:35	53.6	53.6	53.6	94	51.9	0	1	270	0.00	30.083 
22:40	54.1	54.1	54.1	94	52.4	0	0	---	0.00	30.083 
22:45	54.2	54.2	54.2	94	52.5	0	0	---	0.00	30.077 
22:50	54.2	54.2	54.2	94	52.5	0	1	270	0.00	30.077 
22:55	54.4	54.4	54.4	94	52.7	0	0	---	0.00	30.077 
23:00	54.4	54.4	54.4	94	52.7	0	0	---	0.00	30.078 
23:05	54.5	54.5	54.5	94	52.8	0	1	270	0.00	30.078 
23:10	54.7	54.7	54.7	94	53.0	0	0	---	0.00	30.078 
23:15	54.8	54.8	54.8	95	53.4	0	0	---	0.00	30.077 
23:20	54.8	54.8	54.8	94	53.1	0	1	270	0.00	30.077 
23:25	54.7	54.7	54.7	95	53.3	0	1	270	0.00	30.077 
23:30	54.8	54.8	54.8	95	53.4	0	0	---	0.00	30.080 
23:35	54.8	54.8	54.8	95	53.4	0	0	---	0.00	30.080 
23:40	54.7	54.7	54.7	95	53.3	0	1	270	0.00	30.080 
23:45	54.7	54.7	54.7	95	53.3	0	0	---	0.00	30.084 
23:50	54.5	54.5	54.5	95	53.1	0	1	270	0.00	30.084 
23:55	54.7	54.7	54.7	95	53.3	0	0	---	0.00	30.084 

CoCoRaHS
IN-AL-39
A2 Web Hosting
Creative Commons License
GoDaddy
search engine by freefind advanced

loaded 2018-11-13 17:59:29 • last modified 2010-11-18 10:43:29
Privacy PolicyDisclaimer
• wx.awcolley.com is powered by PmWiki v.2002016 •
• all content (unless otherwise noted) © 2018 A W Colley